createdAt,value
2022-12-22T00:02:36.372Z,3.60
2022-12-22T00:05:31.083Z,3.38
2022-12-22T00:08:17.845Z,4.30
2022-12-22T00:11:03.201Z,3.15
2022-12-22T00:13:48.546Z,3.13
2022-12-22T00:16:33.934Z,3.92
2022-12-22T00:19:19.149Z,3.35
2022-12-22T00:22:04.500Z,4.40
2022-12-22T00:24:50.956Z,4.05
2022-12-22T00:27:45.818Z,4.45
2022-12-22T00:30:32.394Z,3.03
2022-12-22T00:33:18.074Z,3.85
2022-12-22T00:36:03.328Z,3.20
2022-12-22T00:38:48.646Z,4.53
2022-12-22T00:41:35.361Z,7.90
2022-12-22T00:44:20.686Z,5.65
2022-12-22T00:47:05.997Z,7.63
2022-12-22T00:49:53.270Z,7.22
2022-12-22T00:52:39.648Z,6.90
2022-12-22T00:55:31.584Z,6.72
2022-12-22T00:58:18.507Z,6.80
2022-12-22T01:01:03.753Z,5.03
2022-12-22T01:03:49.302Z,4.22
2022-12-22T01:06:35.075Z,3.88
2022-12-22T01:09:20.373Z,2.70
2022-12-22T01:12:05.669Z,3.17
2022-12-22T01:14:52.178Z,2.83
2022-12-22T01:17:37.666Z,2.85
2022-12-22T01:20:23.668Z,3.03
2022-12-22T01:23:09.020Z,2.67
2022-12-22T01:25:54.441Z,2.50
2022-12-22T01:28:39.749Z,2.85
2022-12-22T01:31:36.654Z,2.78
2022-12-22T01:34:21.856Z,3.03
2022-12-22T01:37:07.125Z,2.83
2022-12-22T01:39:52.342Z,2.67
2022-12-22T01:42:37.636Z,2.63
2022-12-22T01:45:37.538Z,2.47
2022-12-22T01:48:24.094Z,2.60
2022-12-22T01:51:09.563Z,2.70
2022-12-22T01:53:54.914Z,2.50
2022-12-22T01:56:40.319Z,2.95
2022-12-22T01:59:25.564Z,2.45
2022-12-22T02:02:10.909Z,2.42
2022-12-22T02:05:02.775Z,2.50
2022-12-22T02:08:04.259Z,2.83
2022-12-22T02:11:04.186Z,2.45
2022-12-22T02:13:55.999Z,3.65
2022-12-22T02:16:49.212Z,2.58
2022-12-22T02:19:52.121Z,3.58
2022-12-22T02:22:46.553Z,2.42
2022-12-22T02:25:35.515Z,2.80
2022-12-22T02:28:24.232Z,3.47
2022-12-22T02:31:10.010Z,2.53
2022-12-22T02:33:55.359Z,4.05
2022-12-22T02:36:48.394Z,3.60
2022-12-22T02:39:43.340Z,5.45
2022-12-22T02:42:34.824Z,4.13
2022-12-22T02:45:29.907Z,3.10
2022-12-22T02:48:23.798Z,3.92
2022-12-22T02:51:14.012Z,2.70
2022-12-22T02:53:59.806Z,3.80
2022-12-22T02:56:45.360Z,3.80
2022-12-22T02:59:30.734Z,2.88
2022-12-22T03:02:17.512Z,3.17
2022-12-22T03:05:02.760Z,3.05
2022-12-22T03:07:48.181Z,3.90
2022-12-22T03:10:33.537Z,4.60
2022-12-22T03:13:18.768Z,3.08
2022-12-22T03:16:04.224Z,5.63
2022-12-22T03:18:50.623Z,3.13
2022-12-22T03:21:35.951Z,3.47
2022-12-22T03:24:21.532Z,5.15
2022-12-22T03:26:49.189Z,3.05
2022-12-22T03:29:16.865Z,3.40
2022-12-22T03:31:44.754Z,3.13
2022-12-22T03:34:13.842Z,3.47
2022-12-22T03:36:41.563Z,2.97
2022-12-22T03:39:09.791Z,3.22
2022-12-22T03:41:54.937Z,2.83
2022-12-22T03:44:40.251Z,3.83
2022-12-22T03:47:07.929Z,6.07
2022-12-22T03:49:37.003Z,4.97
2022-12-22T03:52:05.000Z,7.03
2022-12-22T03:54:32.635Z,4.75
2022-12-22T03:57:00.299Z,5.20
2022-12-22T03:59:28.002Z,4.75
2022-12-22T04:01:56.029Z,5.38
2022-12-22T04:04:28.225Z,4.28
2022-12-22T04:06:57.359Z,4.40
2022-12-22T04:09:27.072Z,6.05
2022-12-22T04:12:12.637Z,4.75
2022-12-22T04:14:40.304Z,5.07
2022-12-22T04:17:09.680Z,6.63
2022-12-22T04:19:37.396Z,4.65
2022-12-22T04:22:07.210Z,4.95
2022-12-22T04:24:34.957Z,4.55
2022-12-22T04:27:02.642Z,2.50
2022-12-22T04:29:30.308Z,2.55
2022-12-22T04:31:58.019Z,2.92
2022-12-22T04:34:25.895Z,5.93
2022-12-22T04:36:53.565Z,3.08
2022-12-22T04:39:22.537Z,3.60
2022-12-22T04:41:50.197Z,3.30
2022-12-22T04:44:17.854Z,3.03
2022-12-22T04:46:47.430Z,4.20
2022-12-22T04:49:15.062Z,2.58
2022-12-22T04:51:42.707Z,2.55
2022-12-22T04:54:10.378Z,5.60
2022-12-22T04:56:39.388Z,2.67
2022-12-22T04:59:07.115Z,2.67
2022-12-22T05:01:34.940Z,3.25
2022-12-22T05:04:02.614Z,3.88
2022-12-22T05:06:30.291Z,2.30
2022-12-22T05:08:57.954Z,2.35
2022-12-22T05:11:25.637Z,3.20
2022-12-22T05:13:54.668Z,2.75
2022-12-22T05:16:22.469Z,2.47
2022-12-22T05:18:50.220Z,2.25
2022-12-22T05:21:21.004Z,1.70
2022-12-22T05:23:49.650Z,2.90
2022-12-22T05:26:19.185Z,2.55
2022-12-22T05:28:47.925Z,2.28
2022-12-22T05:31:19.003Z,2.10
2022-12-22T05:33:47.039Z,1.92
2022-12-22T05:36:15.133Z,26.92
2022-12-22T05:38:44.464Z,2.38
2022-12-22T05:41:12.482Z,1.83
2022-12-22T05:43:40.160Z,1.83
2022-12-22T05:46:10.105Z,2.97
2022-12-22T05:48:40.244Z,2.45
2022-12-22T05:51:10.036Z,5.82
2022-12-22T05:53:38.762Z,1.88
2022-12-22T05:56:07.579Z,2.13
2022-12-22T05:58:35.556Z,2.80
2022-12-22T06:01:03.277Z,2.10
2022-12-22T06:03:31.910Z,2.20
2022-12-22T06:06:01.093Z,3.17
2022-12-22T06:08:29.237Z,2.05
2022-12-22T06:10:57.904Z,2.25
2022-12-22T06:13:26.643Z,3.17
2022-12-22T06:15:54.679Z,2.08
2022-12-22T06:18:22.465Z,2.05
2022-12-22T06:20:52.351Z,2.13
2022-12-22T06:23:21.418Z,4.60
2022-12-22T06:25:55.754Z,2.92
2022-12-22T06:28:23.595Z,1.67
2022-12-22T06:30:51.332Z,2.13
2022-12-22T06:33:19.111Z,2.58
2022-12-22T06:35:50.767Z,3.35
2022-12-22T06:38:22.819Z,3.33
2022-12-22T06:40:50.447Z,2.20
2022-12-22T06:43:17.154Z,2.22
2022-12-22T06:45:45.585Z,2.38
2022-12-22T06:48:14.177Z,2.55
2022-12-22T06:50:41.913Z,3.75
2022-12-22T06:53:10.175Z,2.05
2022-12-22T06:55:39.498Z,3.75
2022-12-22T06:58:07.440Z,2.60
2022-12-22T07:00:35.800Z,2.50
2022-12-22T07:03:03.573Z,1.40
2022-12-22T07:05:31.774Z,1.10
2022-12-22T07:08:05.742Z,1.25
2022-12-22T07:10:53.193Z,1.85
2022-12-22T07:13:24.042Z,3.72
2022-12-22T07:15:59.547Z,2.30
2022-12-22T07:18:28.974Z,1.65
2022-12-22T07:20:56.729Z,2.55
2022-12-22T07:23:24.602Z,3.05
2022-12-22T07:25:52.416Z,3.65
2022-12-22T07:28:21.356Z,4.57
2022-12-22T07:30:50.853Z,4.53
2022-12-22T07:33:18.994Z,4.53
2022-12-22T07:35:47.477Z,4.90
2022-12-22T07:38:15.216Z,2.35
2022-12-22T07:40:47.994Z,3.08
2022-12-22T07:43:18.604Z,2.22
2022-12-22T07:45:46.285Z,4.30
2022-12-22T07:48:29.488Z,2.30
2022-12-22T07:51:02.992Z,3.92
2022-12-22T07:53:30.674Z,2.33
2022-12-22T07:55:58.367Z,4.85
2022-12-22T07:58:26.060Z,3.63
2022-12-22T08:00:58.676Z,4.10
2022-12-22T08:03:27.966Z,2.10
2022-12-22T08:05:55.777Z,3.17
2022-12-22T08:08:23.595Z,1.65
2022-12-22T08:10:51.273Z,2.55
2022-12-22T08:13:20.427Z,3.10
2022-12-22T08:15:48.321Z,2.75
2022-12-22T08:18:16.064Z,1.80
2022-12-22T08:20:50.960Z,1.35
2022-12-22T08:23:18.701Z,4.50
2022-12-22T08:25:49.006Z,1.63
2022-12-22T08:28:17.957Z,1.67
2022-12-22T08:30:47.057Z,1.75
2022-12-22T08:33:14.829Z,6.60
2022-12-22T08:35:43.530Z,2.58
2022-12-22T08:38:14.407Z,6.50
2022-12-22T08:40:44.600Z,4.60
2022-12-22T08:43:12.820Z,5.43
2022-12-22T08:45:41.935Z,3.88
2022-12-22T08:48:10.538Z,4.20
2022-12-22T08:50:38.428Z,4.03
2022-12-22T08:53:18.822Z,7.78
2022-12-22T08:55:57.414Z,3.03
2022-12-22T08:58:25.141Z,6.75
2022-12-22T09:00:52.975Z,5.30
2022-12-22T09:03:20.928Z,5.25
2022-12-22T09:05:48.631Z,7.20
2022-12-22T09:08:16.347Z,2.70
2022-12-22T09:10:44.841Z,3.60
2022-12-22T09:13:13.924Z,2.05
2022-12-22T09:15:41.616Z,3.17
2022-12-22T09:18:09.290Z,2.45
2022-12-22T09:20:37.011Z,8.32
2022-12-22T09:23:04.693Z,4.53
2022-12-22T09:25:32.401Z,2.97
2022-12-22T09:28:00.134Z,3.38
2022-12-22T09:30:29.221Z,5.38
2022-12-22T09:32:57.085Z,3.90
2022-12-22T09:35:24.974Z,3.95
2022-12-22T09:37:52.717Z,6.65
2022-12-22T09:40:21.768Z,5.75
2022-12-22T09:42:49.596Z,5.70
2022-12-22T09:45:20.836Z,3.35
2022-12-22T09:47:53.761Z,4.75
2022-12-22T09:50:24.072Z,4.40
2022-12-22T09:52:54.963Z,3.67
2022-12-22T09:55:38.931Z,2.50
2022-12-22T09:58:25.746Z,6.80
2022-12-22T10:01:03.148Z,3.63
2022-12-22T10:03:40.857Z,3.83
2022-12-22T10:06:13.164Z,2.03
2022-12-22T10:08:41.762Z,4.10
2022-12-22T10:11:15.107Z,3.40
2022-12-22T10:13:43.252Z,2.38
2022-12-22T10:16:25.469Z,6.65
2022-12-22T10:19:01.065Z,6.68
2022-12-22T10:21:29.847Z,2.55
2022-12-22T10:23:57.667Z,2.10
2022-12-22T10:26:30.307Z,2.20
2022-12-22T10:29:02.261Z,4.38
2022-12-22T10:31:32.085Z,3.33
2022-12-22T10:34:13.694Z,4.03
2022-12-22T10:36:47.566Z,1.48
2022-12-22T10:39:22.056Z,2.05
2022-12-22T10:41:51.791Z,2.75
2022-12-22T10:44:23.640Z,2.28
2022-12-22T10:46:53.018Z,5.38
2022-12-22T10:49:25.944Z,4.18
2022-12-22T10:51:56.465Z,4.57
2022-12-22T10:54:36.078Z,5.30
2022-12-22T10:57:07.397Z,4.25
2022-12-22T10:59:35.713Z,4.97
2022-12-22T11:02:27.777Z,2.95
2022-12-22T11:05:04.382Z,5.03
2022-12-22T11:07:34.649Z,3.00
2022-12-22T11:10:02.502Z,3.83
2022-12-22T11:12:41.616Z,3.30
2022-12-22T11:15:24.340Z,4.57
2022-12-22T11:18:01.522Z,4.28
2022-12-22T11:20:40.460Z,5.43
2022-12-22T11:23:17.925Z,4.93
2022-12-22T11:25:56.430Z,3.30
2022-12-22T11:28:40.692Z,2.58
2022-12-22T11:31:21.876Z,5.18
2022-12-22T11:34:03.214Z,8.00
2022-12-22T11:36:46.789Z,3.72
2022-12-22T11:39:16.262Z,4.82
2022-12-22T11:41:55.458Z,7.28
2022-12-22T11:44:39.117Z,3.88
2022-12-22T11:47:19.291Z,3.00
2022-12-22T11:50:59.174Z,5.30
2022-12-22T11:53:18.609Z,2.67
2022-12-22T11:55:54.640Z,4.53
2022-12-22T11:58:39.939Z,6.22
2022-12-22T12:01:26.822Z,4.47
2022-12-22T12:04:17.799Z,5.28
2022-12-22T12:07:05.583Z,6.93
2022-12-22T12:09:44.700Z,7.25
2022-12-22T12:12:20.071Z,4.00
2022-12-22T12:15:01.544Z,9.80
2022-12-22T12:17:43.402Z,8.10
2022-12-22T12:20:41.122Z,6.78
2022-12-22T12:23:20.906Z,7.38
2022-12-22T12:25:57.232Z,2.92
2022-12-22T12:28:37.331Z,5.57
2022-12-22T12:31:09.423Z,8.15
2022-12-22T12:33:40.932Z,7.07
2022-12-22T12:36:15.749Z,6.18
2022-12-22T12:39:07.590Z,10.20
2022-12-22T12:41:45.774Z,5.22
2022-12-22T12:44:15.936Z,5.03
2022-12-22T12:47:07.647Z,5.32
2022-12-22T12:49:58.885Z,6.03
2022-12-22T12:53:15.912Z,6.40
2022-12-22T12:56:07.102Z,5.70
2022-12-22T12:58:53.593Z,7.00
2022-12-22T13:01:56.335Z,6.25
2022-12-22T13:05:12.060Z,5.47
2022-12-22T13:08:09.080Z,6.72
2022-12-22T13:10:41.837Z,6.00
2022-12-22T13:13:12.968Z,5.03
2022-12-22T13:15:45.047Z,6.03
2022-12-22T13:18:44.330Z,4.57
2022-12-22T13:24:26.038Z,6.53
2022-12-22T13:26:56.229Z,5.90
2022-12-22T13:29:29.316Z,8.02
2022-12-22T13:32:02.438Z,8.13
2022-12-22T13:34:57.634Z,8.40
2022-12-22T13:37:29.874Z,3.72
2022-12-22T13:40:14.363Z,9.02
2022-12-22T13:42:44.951Z,7.22
2022-12-22T13:45:35.829Z,9.82
2022-12-22T13:48:09.599Z,9.30
2022-12-22T13:50:40.300Z,6.45
2022-12-22T13:53:15.380Z,6.32
2022-12-22T13:55:52.439Z,9.10
2022-12-22T13:58:27.966Z,8.00
2022-12-22T14:06:28.389Z,9.30
2022-12-22T14:09:11.415Z,5.88
2022-12-22T14:11:39.191Z,10.73
2022-12-22T14:14:09.553Z,10.40
2022-12-22T14:16:43.912Z,9.23
2022-12-22T14:19:15.377Z,8.20
2022-12-22T14:21:44.801Z,9.35
2022-12-22T14:24:17.564Z,7.47
2022-12-22T14:26:45.891Z,10.27
2022-12-22T14:29:17.884Z,9.48
2022-12-22T14:31:53.505Z,12.57
2022-12-22T14:36:54.806Z,11.07
2022-12-22T14:39:24.772Z,14.00
2022-12-22T14:41:54.989Z,15.45
2022-12-22T14:44:25.648Z,12.15
2022-12-22T14:47:08.683Z,7.07
2022-12-22T14:49:45.936Z,7.90
2022-12-22T14:52:21.215Z,10.32
2022-12-22T14:54:50.772Z,15.20
2022-12-22T14:57:29.387Z,16.02
2022-12-22T15:00:02.433Z,12.73
2022-12-22T15:02:38.618Z,10.98
2022-12-22T15:05:16.027Z,12.55
2022-12-22T15:10:39.715Z,10.68
2022-12-22T15:13:12.967Z,15.02
2022-12-22T15:15:40.696Z,13.48
2022-12-22T15:18:14.653Z,9.55
2022-12-22T15:20:43.774Z,10.30
2022-12-22T15:23:14.747Z,9.73
2022-12-22T15:25:42.531Z,14.15
2022-12-22T15:28:10.413Z,9.55
2022-12-22T15:30:38.559Z,8.98
2022-12-22T15:33:12.843Z,10.32
2022-12-22T15:35:41.486Z,9.07
2022-12-22T15:38:14.536Z,11.93
2022-12-22T15:40:42.454Z,8.30
2022-12-22T15:43:28.805Z,10.23
2022-12-22T15:45:58.597Z,9.60
2022-12-22T15:48:28.862Z,7.97
2022-12-22T15:50:57.319Z,7.20
2022-12-22T15:53:26.485Z,9.10
2022-12-22T15:55:58.408Z,11.82
2022-12-22T15:58:28.966Z,10.38
2022-12-22T16:00:56.855Z,8.18
2022-12-22T16:03:24.947Z,8.52
2022-12-22T16:05:54.446Z,7.40
2022-12-22T16:08:26.847Z,6.03
2022-12-22T16:10:55.946Z,8.32
2022-12-22T16:13:27.261Z,7.32
2022-12-22T16:15:57.591Z,7.20
2022-12-22T16:18:25.576Z,9.43
2022-12-22T16:20:53.766Z,7.60
2022-12-22T16:23:25.030Z,7.78
2022-12-22T16:26:00.938Z,9.50
2022-12-22T16:28:29.691Z,9.75
2022-12-22T16:30:57.840Z,8.73
2022-12-22T16:33:25.613Z,11.38
2022-12-22T16:35:53.300Z,7.97
2022-12-22T16:38:21.068Z,8.13
2022-12-22T16:40:51.459Z,6.15
2022-12-22T16:46:15.899Z,6.25
2022-12-22T16:48:46.117Z,12.50
2022-12-22T16:51:20.020Z,7.35
2022-12-22T16:53:47.802Z,8.45
2022-12-22T16:56:18.959Z,10.27
2022-12-22T16:58:48.820Z,11.85
2022-12-22T17:01:31.460Z,10.85
2022-12-22T17:04:03.244Z,9.40
2022-12-22T17:06:31.172Z,7.55
2022-12-22T17:08:59.149Z,7.30
2022-12-22T17:11:29.262Z,10.15
2022-12-22T17:14:05.727Z,10.30
2022-12-22T17:16:33.633Z,10.38
2022-12-22T17:19:01.431Z,7.28
2022-12-22T17:21:29.807Z,7.00
2022-12-22T17:24:03.901Z,9.32
2022-12-22T17:26:34.419Z,9.93
2022-12-22T17:29:03.574Z,8.48
2022-12-22T17:31:31.412Z,10.00
2022-12-22T17:33:59.721Z,6.63
2022-12-22T17:36:34.235Z,7.10
2022-12-22T17:39:03.001Z,10.40
2022-12-22T17:41:30.695Z,7.53
2022-12-22T17:43:58.459Z,7.88
2022-12-22T17:46:28.326Z,8.80
2022-12-22T17:48:56.198Z,6.40
2022-12-22T17:51:26.585Z,8.63
2022-12-22T17:53:55.860Z,6.50
2022-12-22T17:56:25.609Z,7.53
2022-12-22T17:58:54.291Z,9.35
2022-12-22T18:01:24.377Z,9.00
2022-12-22T18:03:53.602Z,9.43
2022-12-22T18:06:23.992Z,8.05
2022-12-22T18:08:52.896Z,7.70
2022-12-22T18:11:20.720Z,8.70
2022-12-22T18:13:48.862Z,6.93
2022-12-22T18:16:19.804Z,6.95
2022-12-22T18:18:48.084Z,6.03
2022-12-22T18:21:20.073Z,5.60
2022-12-22T18:23:50.628Z,7.18
2022-12-22T18:26:23.305Z,6.03
2022-12-22T18:28:51.706Z,8.63
2022-12-22T18:31:19.686Z,9.95
2022-12-22T18:33:47.385Z,7.30
2022-12-22T18:36:19.523Z,9.18
2022-12-22T18:38:48.274Z,6.03
2022-12-22T18:41:22.213Z,12.82
2022-12-22T18:43:50.235Z,8.52
2022-12-22T18:46:18.511Z,10.52
2022-12-22T18:48:47.237Z,9.20
2022-12-22T18:51:20.555Z,6.40
2022-12-22T18:53:49.363Z,7.30
2022-12-22T18:56:17.360Z,7.20
2022-12-22T18:58:46.166Z,7.43
2022-12-22T19:01:20.740Z,9.85
2022-12-22T19:03:49.014Z,9.43
2022-12-22T19:06:20.679Z,5.88
2022-12-22T19:08:48.886Z,8.20
2022-12-22T19:11:19.182Z,7.07
2022-12-22T19:13:49.424Z,8.55
2022-12-22T19:16:20.063Z,8.90
2022-12-22T19:18:47.824Z,6.60
2022-12-22T19:21:16.275Z,5.72
2022-12-22T19:23:45.749Z,7.30
2022-12-22T19:26:21.735Z,8.20
2022-12-22T19:28:52.004Z,8.98
2022-12-22T19:31:23.300Z,6.30
2022-12-22T19:33:52.420Z,4.78
2022-12-22T19:36:25.405Z,6.78
2022-12-22T19:39:02.794Z,6.70
2022-12-22T19:41:40.987Z,12.80
2022-12-22T19:44:17.858Z,4.90
2022-12-22T19:46:45.890Z,7.72
2022-12-22T19:49:16.770Z,5.45
2022-12-22T19:51:44.646Z,7.18
2022-12-22T19:54:13.990Z,10.10
2022-12-22T19:56:43.471Z,4.43
2022-12-22T19:59:26.961Z,6.60
2022-12-22T20:01:57.919Z,5.85
2022-12-22T20:04:25.882Z,5.78
2022-12-22T20:06:53.767Z,7.00
2022-12-22T20:09:22.910Z,5.00
2022-12-22T20:11:50.710Z,8.45
2022-12-22T20:14:19.598Z,5.00
2022-12-22T20:16:47.477Z,6.82
2022-12-22T20:19:15.782Z,6.75
2022-12-22T20:21:44.272Z,6.32
2022-12-22T20:24:19.421Z,5.50
2022-12-22T20:26:53.708Z,9.45
2022-12-22T20:29:22.672Z,5.32
2022-12-22T20:31:50.502Z,3.53
2022-12-22T20:34:18.299Z,4.90
2022-12-22T20:36:45.957Z,3.17
2022-12-22T20:39:16.354Z,4.53
2022-12-22T20:41:50.487Z,6.25
2022-12-22T20:44:22.873Z,5.65
2022-12-22T20:46:50.982Z,4.05
2022-12-22T20:49:18.739Z,7.05
2022-12-22T20:51:46.637Z,5.65
2022-12-22T20:54:15.368Z,9.05
2022-12-22T20:56:45.318Z,6.22
2022-12-22T20:59:15.871Z,6.75
2022-12-22T21:01:46.118Z,4.95
2022-12-22T21:04:14.919Z,5.18
2022-12-22T21:06:46.395Z,4.43
2022-12-22T21:09:15.929Z,5.55
2022-12-22T21:11:43.960Z,3.47
2022-12-22T21:14:12.620Z,3.17
2022-12-22T21:16:40.804Z,3.03
2022-12-22T21:19:16.208Z,6.90
2022-12-22T21:21:43.887Z,4.30
2022-12-22T21:24:11.542Z,2.80
2022-12-22T21:26:42.979Z,4.85
2022-12-22T21:29:15.763Z,4.55
2022-12-22T21:31:43.455Z,3.22
2022-12-22T21:34:12.792Z,3.92
2022-12-22T21:36:43.534Z,7.03
2022-12-22T21:39:22.513Z,3.60
2022-12-22T21:42:04.416Z,6.68
2022-12-22T21:44:34.606Z,4.63
2022-12-22T21:47:02.732Z,5.85
2022-12-22T21:49:33.310Z,5.43
2022-12-22T21:52:01.124Z,2.70
2022-12-22T21:54:28.958Z,2.70
2022-12-22T21:56:57.070Z,4.20
2022-12-22T21:59:24.763Z,6.93
2022-12-22T22:01:53.458Z,3.83
2022-12-22T22:04:21.975Z,5.05
2022-12-22T22:06:50.977Z,3.35
2022-12-22T22:09:18.648Z,5.88
2022-12-22T22:12:03.872Z,3.05
2022-12-22T22:14:31.636Z,4.10
2022-12-22T22:16:59.290Z,4.15
2022-12-22T22:19:27.442Z,3.83
2022-12-22T22:21:57.014Z,6.30
2022-12-22T22:24:24.708Z,5.45
2022-12-22T22:26:52.375Z,4.28
2022-12-22T22:29:20.126Z,5.28
2022-12-22T22:31:47.898Z,2.28
2022-12-22T22:34:16.557Z,3.45
2022-12-22T22:36:44.200Z,4.95
2022-12-22T22:39:13.319Z,6.45
2022-12-22T22:41:43.443Z,4.00
2022-12-22T22:44:11.623Z,4.03
2022-12-22T22:46:39.521Z,2.72
2022-12-22T22:49:07.309Z,5.57
2022-12-22T22:51:35.014Z,2.30
2022-12-22T22:54:02.839Z,3.38
2022-12-22T23:05:22.948Z,1.45
2022-12-22T23:07:50.904Z,2.25
2022-12-22T23:10:18.715Z,1.58
2022-12-22T23:12:46.441Z,3.33
2022-12-22T23:15:14.079Z,2.92
2022-12-22T23:17:41.728Z,4.35
2022-12-22T23:20:11.464Z,2.05
2022-12-22T23:22:39.108Z,2.20
2022-12-22T23:25:07.206Z,4.28
2022-12-22T23:27:34.907Z,4.78
2022-12-22T23:30:02.627Z,5.30
2022-12-22T23:32:30.283Z,2.70
2022-12-22T23:34:57.941Z,2.33
2022-12-22T23:37:29.768Z,1.67
2022-12-22T23:40:10.763Z,3.45
2022-12-22T23:42:45.016Z,2.75
2022-12-22T23:45:12.711Z,1.98
2022-12-22T23:47:40.393Z,3.80
2022-12-22T23:50:09.344Z,3.33
2022-12-22T23:52:39.868Z,4.82
2022-12-22T23:55:11.204Z,4.72
2022-12-22T23:57:38.977Z,2.17
